Time;durP1;ratioP1;P1;durP2;ratioP2;P2;SDS_P1;SDS_P2;PMS_P1;PMS_P2;Temp;Humidity;BMP_temperature;BMP_pressure;BME280_temperature;BME280_humidity;BME280_pressure;Samples;Min_cycle;Max_cycle;Signal;HPM_P1;HPM_P2
2021/10/12 00:02:19;;;;;;;40.65;24.63;;;;;;;;;;5032841;28;20128;-49
2021/10/12 00:04:46;;;;;;;43.03;25.58;;;;;;;;;;5032160;28;20045;-44
2021/10/12 00:07:13;;;;;;;41.80;25.58;;;;;;;;;;5031786;28;20060;-44
2021/10/12 00:09:40;;;;;;;42.22;25.83;;;;;;;;;;5032811;28;20489;-47
2021/10/12 00:12:06;;;;;;;40.20;24.50;;;;;;;;;;5032779;28;20041;-44
2021/10/12 00:14:33;;;;;;;38.92;24.95;;;;;;;;;;5031985;28;20128;-43
2021/10/12 00:17:00;;;;;;;40.47;24.40;;;;;;;;;;5031408;28;20429;-45
2021/10/12 00:19:27;;;;;;;37.78;22.90;;;;;;;;;;5032400;28;20048;-45
2021/10/12 00:21:53;;;;;;;38.33;23.45;;;;;;;;;;5032471;28;20049;-44
2021/10/12 00:24:20;;;;;;;33.75;22.02;;;;;;;;;;5031623;28;20044;-47
2021/10/12 00:26:47;;;;;;;31.55;18.42;;;;;;;;;;5031290;28;20155;-45
2021/10/12 00:29:15;;;;;;;34.35;18.00;;;;;;;;;;5031141;28;20052;-47
2021/10/12 00:31:42;;;;;;;30.02;18.77;;;;;;;;;;5032467;28;20751;-46
2021/10/12 00:34:09;;;;;;;28.90;17.33;;;;;;;;;;5030455;28;20406;-46
2021/10/12 00:36:35;;;;;;;32.95;17.45;;;;;;;;;;5032316;28;20483;-48
2021/10/12 00:39:03;;;;;;;28.67;15.90;;;;;;;;;;5023901;28;20042;-50
2021/10/12 00:41:30;;;;;;;27.55;16.63;;;;;;;;;;5011045;28;20041;-49
2021/10/12 00:43:56;;;;;;;26.65;16.48;;;;;;;;;;5010540;28;20038;-47
2021/10/12 00:46:23;;;;;;;26.30;15.35;;;;;;;;;;5012473;28;20041;-46
2021/10/12 00:48:50;;;;;;;26.02;15.93;;;;;;;;;;5026966;28;20044;-49
2021/10/12 00:51:17;;;;;;;31.75;17.40;;;;;;;;;;5032190;28;20052;-48
2021/10/12 00:53:43;;;;;;;24.42;14.77;;;;;;;;;;5031235;28;20461;-46
2021/10/12 00:56:11;;;;;;;29.08;16.15;;;;;;;;;;5031965;28;20375;-45
2021/10/12 00:58:38;;;;;;;27.25;15.95;;;;;;;;;;5032846;28;20045;-46
2021/10/12 01:01:05;;;;;;;26.05;16.23;;;;;;;;;;5042074;28;20405;-50
2021/10/12 01:03:32;;;;;;;22.83;14.15;;;;;;;;;;5051125;28;20070;-49
2021/10/12 01:05:59;;;;;;;26.05;15.32;;;;;;;;;;5051660;28;20072;-46
2021/10/12 01:08:27;;;;;;;28.48;15.43;;;;;;;;;;5035060;28;20072;-47
2021/10/12 01:10:53;;;;;;;38.47;18.83;;;;;;;;;;5031692;28;20041;-45
2021/10/12 01:13:20;;;;;;;29.38;17.33;;;;;;;;;;5030892;28;20045;-45
2021/10/12 01:15:47;;;;;;;29.27;19.20;;;;;;;;;;5030321;28;20049;-49
2021/10/12 01:18:14;;;;;;;28.38;17.85;;;;;;;;;;5031646;28;20049;-46
2021/10/12 01:20:41;;;;;;;29.05;19.63;;;;;;;;;;5031709;28;20071;-46
2021/10/12 01:23:08;;;;;;;30.50;19.02;;;;;;;;;;5030790;28;20064;-48
2021/10/12 01:25:36;;;;;;;31.60;19.13;;;;;;;;;;5030440;28;20076;-45
2021/10/12 01:28:04;;;;;;;32.03;19.23;;;;;;;;;;5031588;28;20057;-46
2021/10/12 01:30:31;;;;;;;27.95;18.20;;;;;;;;;;5030460;28;20037;-46
2021/10/12 01:32:57;;;;;;;28.35;17.38;;;;;;;;;;5031500;28;20072;-47
2021/10/12 01:35:24;;;;;;;35.47;19.70;;;;;;;;;;5030835;28;20048;-47
2021/10/12 01:37:51;;;;;;;32.88;20.13;;;;;;;;;;5030289;28;20065;-45
2021/10/12 01:40:18;;;;;;;33.42;20.83;;;;;;;;;;5031333;28;20091;-46
2021/10/12 01:42:45;;;;;;;36.80;21.55;;;;;;;;;;5031295;28;20400;-47
2021/10/12 01:45:12;;;;;;;35.75;20.20;;;;;;;;;;5030621;28;20564;-46
2021/10/12 01:47:40;;;;;;;31.50;19.23;;;;;;;;;;5030314;28;20045;-48
2021/10/12 01:50:07;;;;;;;34.20;19.70;;;;;;;;;;5031419;28;20045;-45
2021/10/12 01:52:34;;;;;;;37.65;21.83;;;;;;;;;;5031157;28;20041;-46
2021/10/12 01:55:02;;;;;;;38.63;21.92;;;;;;;;;;5030707;28;20046;-48
2021/10/12 01:57:28;;;;;;;35.08;18.75;;;;;;;;;;5030388;28;20052;-47
2021/10/12 01:59:55;;;;;;;29.52;18.08;;;;;;;;;;5030194;28;20067;-43
2021/10/12 02:02:22;;;;;;;28.40;17.58;;;;;;;;;;5031313;28;20435;-44
2021/10/12 02:04:49;;;;;;;30.63;17.50;;;;;;;;;;5031976;28;20041;-44
2021/10/12 02:07:16;;;;;;;31.42;18.85;;;;;;;;;;5034885;28;20137;-47
2021/10/12 02:09:43;;;;;;;26.83;16.50;;;;;;;;;;5032660;28;20049;-45
2021/10/12 02:12:10;;;;;;;34.17;18.17;;;;;;;;;;5034776;28;20144;-43
2021/10/12 02:14:36;;;;;;;31.15;18.45;;;;;;;;;;5034347;28;20437;-47
2021/10/12 02:17:03;;;;;;;34.80;19.95;;;;;;;;;;5033795;28;20124;-48
2021/10/12 02:19:30;;;;;;;32.17;19.63;;;;;;;;;;5034871;28;20046;-47
2021/10/12 02:21:56;;;;;;;34.72;20.75;;;;;;;;;;5034766;28;20052;-45
2021/10/12 02:24:23;;;;;;;38.30;20.65;;;;;;;;;;5033138;28;20077;-45
2021/10/12 02:26:50;;;;;;;35.72;20.83;;;;;;;;;;5034916;28;20045;-46
2021/10/12 02:29:17;;;;;;;38.17;21.85;;;;;;;;;;5033813;28;20053;-44
2021/10/12 02:31:43;;;;;;;42.85;22.98;;;;;;;;;;5034877;28;20045;-46
2021/10/12 02:34:10;;;;;;;34.72;21.38;;;;;;;;;;5033959;28;20056;-46
2021/10/12 02:36:37;;;;;;;37.88;22.45;;;;;;;;;;5034469;28;20037;-45
2021/10/12 02:39:04;;;;;;;37.40;22.25;;;;;;;;;;5033785;28;20045;-46
2021/10/12 02:41:31;;;;;;;43.13;24.17;;;;;;;;;;5034303;28;20037;-47
2021/10/12 02:43:58;;;;;;;47.67;24.63;;;;;;;;;;5071788;22;20072;-45
2021/10/12 02:46:25;;;;;;;41.80;23.77;;;;;;;;;;5053470;28;20116;-43
2021/10/12 02:48:51;;;;;;;43.60;22.75;;;;;;;;;;5036568;28;20050;-46
2021/10/12 02:51:18;;;;;;;43.20;22.70;;;;;;;;;;5033817;28;20041;-42
2021/10/12 02:53:45;;;;;;;35.63;21.75;;;;;;;;;;5033553;28;20060;-43
2021/10/12 02:56:12;;;;;;;38.13;23.77;;;;;;;;;;5033906;28;20044;-45
2021/10/12 02:58:39;;;;;;;41.40;22.90;;;;;;;;;;5034120;28;20049;-45
2021/10/12 03:01:07;;;;;;;39.20;21.27;;;;;;;;;;5035646;28;20449;-42
2021/10/12 03:03:34;;;;;;;34.08;20.83;;;;;;;;;;5034028;28;20050;-43
2021/10/12 03:06:01;;;;;;;40.67;24.60;;;;;;;;;;5034425;28;20049;-43
2021/10/12 03:08:27;;;;;;;39.72;21.52;;;;;;;;;;5034350;28;20648;-44
2021/10/12 03:10:54;;;;;;;37.13;21.80;;;;;;;;;;5034200;28;20134;-47
2021/10/12 03:13:21;;;;;;;39.50;22.27;;;;;;;;;;5034008;28;20125;-44
2021/10/12 03:15:48;;;;;;;42.10;23.88;;;;;;;;;;5043219;28;20358;-45
2021/10/12 03:18:16;;;;;;;39.80;22.40;;;;;;;;;;5049094;28;20473;-43
2021/10/12 03:20:43;;;;;;;41.13;22.77;;;;;;;;;;5054812;28;20049;-45
2021/10/12 03:23:10;;;;;;;39.15;22.45;;;;;;;;;;5052984;28;20411;-46
2021/10/12 03:25:37;;;;;;;40.53;23.02;;;;;;;;;;5054559;28;20051;-45
2021/10/12 03:28:04;;;;;;;43.17;23.73;;;;;;;;;;5042446;28;20127;-45
2021/10/12 03:30:30;;;;;;;42.10;23.23;;;;;;;;;;5033222;28;20065;-46
2021/10/12 03:32:57;;;;;;;43.08;25.48;;;;;;;;;;5033131;28;20521;-47
2021/10/12 03:35:33;;;;;;;40.80;23.33;;;;;;;;;;5033032;28;20041;-44
2021/10/12 03:37:59;;;;;;;42.13;22.48;;;;;;;;;;5039484;28;20078;-46
2021/10/12 03:40:26;;;;;;;36.95;22.17;;;;;;;;;;5033102;28;20041;-47
2021/10/12 03:42:53;;;;;;;36.70;20.23;;;;;;;;;;5031841;28;20049;-45
2021/10/12 03:45:20;;;;;;;37.97;21.25;;;;;;;;;;5032885;28;20045;-44
2021/10/12 03:47:48;;;;;;;39.75;22.77;;;;;;;;;;5033338;28;20119;-45
2021/10/12 03:50:15;;;;;;;38.35;22.58;;;;;;;;;;5033553;28;20069;-48
2021/10/12 03:52:41;;;;;;;41.22;21.30;;;;;;;;;;5033661;28;20037;-46
2021/10/12 03:55:09;;;;;;;40.97;21.92;;;;;;;;;;5033492;28;20053;-48
2021/10/12 03:57:35;;;;;;;40.83;22.45;;;;;;;;;;5033914;28;20148;-42
2021/10/12 04:00:03;;;;;;;37.45;21.45;;;;;;;;;;5045447;28;20065;-45
2021/10/12 04:02:30;;;;;;;39.70;21.00;;;;;;;;;;5031798;28;20679;-44
2021/10/12 04:04:57;;;;;;;40.60;21.88;;;;;;;;;;5033000;28;20045;-45
2021/10/12 04:07:24;;;;;;;37.42;20.75;;;;;;;;;;5033203;28;20122;-44
2021/10/12 04:09:50;;;;;;;42.63;22.13;;;;;;;;;;5033349;28;20124;-44
2021/10/12 04:12:18;;;;;;;37.25;21.33;;;;;;;;;;5031967;28;20167;-44
2021/10/12 04:14:44;;;;;;;43.50;22.75;;;;;;;;;;5032723;28;20045;-44
2021/10/12 04:17:11;;;;;;;39.70;22.15;;;;;;;;;;5043140;28;20039;-44
2021/10/12 04:19:38;;;;;;;39.35;21.48;;;;;;;;;;5048571;28;20470;-44
2021/10/12 04:22:05;;;;;;;45.10;22.98;;;;;;;;;;5052833;28;20401;-44
2021/10/12 04:24:31;;;;;;;44.15;22.17;;;;;;;;;;5052550;28;20047;-45
2021/10/12 04:26:58;;;;;;;37.97;21.10;;;;;;;;;;5047292;28;20072;-45
2021/10/12 04:29:25;;;;;;;43.92;22.77;;;;;;;;;;5032511;28;20048;-43
2021/10/12 04:31:52;;;;;;;43.03;23.30;;;;;;;;;;5031948;28;20073;-43
2021/10/12 04:34:18;;;;;;;42.60;22.80;;;;;;;;;;5031914;28;20052;-45
2021/10/12 04:36:45;;;;;;;39.95;22.42;;;;;;;;;;5032765;28;20046;-43
2021/10/12 04:39:12;;;;;;;39.05;23.13;;;;;;;;;;5032262;28;20140;-46
2021/10/12 04:41:39;;;;;;;39.25;21.73;;;;;;;;;;5032674;28;20419;-45
2021/10/12 04:44:09;;;;;;;42.75;23.10;;;;;;;;;;5031941;28;20332;-46
2021/10/12 04:46:37;;;;;;;41.67;22.60;;;;;;;;;;5032199;28;20045;-44
2021/10/12 04:49:04;;;;;;;45.90;23.27;;;;;;;;;;5031875;28;20431;-44
2021/10/12 04:51:31;;;;;;;39.67;23.02;;;;;;;;;;5031934;28;20108;-50
2021/10/12 04:53:58;;;;;;;42.38;21.48;;;;;;;;;;5031627;28;20044;-45
2021/10/12 04:56:24;;;;;;;42.30;22.55;;;;;;;;;;5031993;28;20094;-49
2021/10/12 04:58:51;;;;;;;43.33;21.70;;;;;;;;;;5031462;28;20047;-44
2021/10/12 05:01:18;;;;;;;45.35;23.38;;;;;;;;;;5031479;28;20049;-46
2021/10/12 05:03:45;;;;;;;46.10;24.90;;;;;;;;;;5031202;28;20065;-46
2021/10/12 05:06:12;;;;;;;49.53;25.05;;;;;;;;;;5031916;28;20171;-46
2021/10/12 05:08:38;;;;;;;45.05;23.63;;;;;;;;;;5031716;28;20045;-47
2021/10/12 05:11:05;;;;;;;44.67;23.35;;;;;;;;;;5031471;28;20120;-46
2021/10/12 05:13:32;;;;;;;47.22;24.45;;;;;;;;;;5031137;28;20436;-45
2021/10/12 05:16:09;;;;;;;42.95;22.70;;;;;;;;;;5042148;28;20128;-48
2021/10/12 05:18:38;;;;;;;43.30;22.23;;;;;;;;;;5048059;28;20045;-47
2021/10/12 05:21:06;;;;;;;40.45;22.17;;;;;;;;;;5052472;28;20053;-45
2021/10/12 05:23:33;;;;;;;44.42;22.70;;;;;;;;;;5050959;28;20124;-46
2021/10/12 05:26:00;;;;;;;42.85;22.83;;;;;;;;;;5039914;28;20498;-45
2021/10/12 05:28:27;;;;;;;42.47;23.38;;;;;;;;;;5047042;28;20508;-44
2021/10/12 05:30:54;;;;;;;43.55;23.85;;;;;;;;;;5035028;28;20069;-45
2021/10/12 05:33:21;;;;;;;42.60;23.40;;;;;;;;;;5062468;28;20071;-46
2021/10/12 05:35:48;;;;;;;44.70;23.75;;;;;;;;;;5067301;28;20119;-46
2021/10/12 05:38:16;;;;;;;42.47;23.52;;;;;;;;;;5039175;28;20076;-44
2021/10/12 05:40:43;;;;;;;45.08;23.73;;;;;;;;;;5043383;28;20045;-44
2021/10/12 05:43:10;;;;;;;45.58;22.10;;;;;;;;;;5029660;28;20045;-45
2021/10/12 05:45:37;;;;;;;42.20;24.30;;;;;;;;;;5031055;28;20534;-43
2021/10/12 05:48:07;;;;;;;44.10;22.42;;;;;;;;;;5033636;28;20087;-47
2021/10/12 05:50:37;;;;;;;44.33;22.52;;;;;;;;;;5035114;28;20069;-46
2021/10/12 06:00:59;;;;;;;48.22;24.15;;;;;;;;;;5046430;28;20053;-47
2021/10/12 06:03:26;;;;;;;42.78;23.20;;;;;;;;;;5035042;28;20057;-48
2021/10/12 06:05:53;;;;;;;41.42;22.60;;;;;;;;;;5046741;28;20040;-44
2021/10/12 06:08:19;;;;;;;38.03;22.58;;;;;;;;;;5053292;28;20114;-46
2021/10/12 06:10:46;;;;;;;40.50;22.00;;;;;;;;;;5052740;28;20076;-45
2021/10/12 06:13:13;;;;;;;43.10;23.65;;;;;;;;;;5053929;28;20041;-44
2021/10/12 06:15:41;;;;;;;37.65;22.77;;;;;;;;;;5054850;28;20039;-47
2021/10/12 06:18:09;;;;;;;43.88;23.88;;;;;;;;;;5048688;28;20497;-44
2021/10/12 06:20:36;;;;;;;43.95;23.20;;;;;;;;;;5037657;28;20041;-45
2021/10/12 06:23:03;;;;;;;41.72;23.52;;;;;;;;;;5054154;28;20099;-44
2021/10/12 06:25:30;;;;;;;41.35;24.08;;;;;;;;;;5051638;28;20051;-44
2021/10/12 06:27:57;;;;;;;40.92;23.40;;;;;;;;;;5048922;28;20508;-44
2021/10/12 06:30:23;;;;;;;39.70;22.92;;;;;;;;;;5042480;28;20123;-46
2021/10/12 06:32:50;;;;;;;39.72;23.65;;;;;;;;;;5049400;28;20116;-46
2021/10/12 06:35:17;;;;;;;41.33;23.42;;;;;;;;;;5034209;28;20124;-44
2021/10/12 06:37:44;;;;;;;40.35;22.55;;;;;;;;;;5034166;28;20315;-44
2021/10/12 06:40:11;;;;;;;39.58;22.83;;;;;;;;;;5034289;28;20120;-46
2021/10/12 06:42:38;;;;;;;44.50;23.52;;;;;;;;;;5034250;28;20425;-44
2021/10/12 06:45:05;;;;;;;40.55;23.60;;;;;;;;;;5032743;28;20196;-45
2021/10/12 06:47:32;;;;;;;53.47;26.10;;;;;;;;;;5033827;28;20045;-43
2021/10/12 06:49:58;;;;;;;51.38;25.38;;;;;;;;;;5034151;28;20129;-45
2021/10/12 06:52:25;;;;;;;38.85;22.20;;;;;;;;;;5032852;28;20057;-45
2021/10/12 06:54:52;;;;;;;37.63;21.73;;;;;;;;;;5036933;28;20039;-45
2021/10/12 06:57:19;;;;;;;41.55;23.67;;;;;;;;;;5052737;28;20426;-44
2021/10/12 06:59:46;;;;;;;40.60;23.33;;;;;;;;;;5051560;28;20060;-46
2021/10/12 07:02:13;;;;;;;41.80;22.08;;;;;;;;;;5053225;28;20570;-44
2021/10/12 07:04:40;;;;;;;39.42;21.60;;;;;;;;;;5052486;28;20048;-47
2021/10/12 07:07:06;;;;;;;36.55;22.33;;;;;;;;;;5052987;28;20498;-45
2021/10/12 07:09:34;;;;;;;38.03;22.15;;;;;;;;;;5049106;28;20099;-47
2021/10/12 07:12:00;;;;;;;36.97;22.55;;;;;;;;;;5052359;28;20056;-47
2021/10/12 07:14:28;;;;;;;40.50;22.75;;;;;;;;;;5053681;28;20490;-47
2021/10/12 07:16:55;;;;;;;40.28;23.08;;;;;;;;;;5045297;28;20292;-44
2021/10/12 07:19:22;;;;;;;41.80;23.17;;;;;;;;;;5053086;28;20059;-47
2021/10/12 07:21:49;;;;;;;37.53;22.40;;;;;;;;;;5053017;28;20139;-45
2021/10/12 07:24:15;;;;;;;40.00;22.60;;;;;;;;;;5048221;28;20490;-48
2021/10/12 07:26:42;;;;;;;41.20;21.88;;;;;;;;;;5048404;28;20084;-45
2021/10/12 07:29:10;;;;;;;42.20;23.60;;;;;;;;;;5049723;28;20486;-46
2021/10/12 07:31:36;;;;;;;45.83;25.95;;;;;;;;;;5049729;28;20120;-45
2021/10/12 07:34:05;;;;;;;42.72;23.50;;;;;;;;;;5052482;28;20102;-45
2021/10/12 07:36:32;;;;;;;41.53;22.52;;;;;;;;;;5052651;28;20132;-46
2021/10/12 07:38:59;;;;;;;38.50;23.13;;;;;;;;;;5049280;28;20575;-45
2021/10/12 07:41:27;;;;;;;41.63;23.95;;;;;;;;;;5054836;28;20048;-48
2021/10/12 07:43:54;;;;;;;39.33;24.02;;;;;;;;;;5054939;28;20044;-47
2021/10/12 07:46:22;;;;;;;45.85;24.48;;;;;;;;;;5051325;28;20067;-46
2021/10/12 07:48:51;;;;;;;52.17;25.58;;;;;;;;;;5045733;28;20607;-47
2021/10/12 07:51:37;;;;;;;44.13;23.60;;;;;;;;;;5064606;28;20037;-45
2021/10/12 07:54:09;;;;;;;36.33;22.60;;;;;;;;;;5061408;28;20227;-45
2021/10/12 07:56:36;;;;;;;42.13;23.85;;;;;;;;;;5047073;28;20592;-44
2021/10/12 07:59:04;;;;;;;36.15;21.38;;;;;;;;;;5065473;28;20059;-45
2021/10/12 08:01:34;;;;;;;43.78;23.73;;;;;;;;;;5045446;28;20056;-50
2021/10/12 08:04:07;;;;;;;34.40;21.38;;;;;;;;;;5057618;28;20409;-45
2021/10/12 08:06:34;;;;;;;46.38;24.45;;;;;;;;;;5062403;28;20064;-49
2021/10/12 08:09:01;;;;;;;35.90;22.40;;;;;;;;;;5048506;28;20073;-47
2021/10/12 08:11:28;;;;;;;42.13;23.70;;;;;;;;;;5042823;28;20062;-46
2021/10/12 08:13:58;;;;;;;38.08;21.88;;;;;;;;;;5061307;28;20124;-47
2021/10/12 08:16:32;;;;;;;37.53;21.15;;;;;;;;;;5038014;28;20120;-48
2021/10/12 08:18:59;;;;;;;40.20;21.77;;;;;;;;;;5027124;28;20051;-49
2021/10/12 08:21:28;;;;;;;41.35;23.65;;;;;;;;;;5061854;28;20127;-45
2021/10/12 08:23:57;;;;;;;42.08;24.08;;;;;;;;;;5061273;28;20510;-48
2021/10/12 08:26:26;;;;;;;33.80;20.30;;;;;;;;;;5049167;28;20057;-47
2021/10/12 08:28:53;;;;;;;37.47;19.48;;;;;;;;;;5051323;28;20067;-46
2021/10/12 08:31:19;;;;;;;35.92;19.95;;;;;;;;;;5049909;28;20041;-48
2021/10/12 08:33:47;;;;;;;32.58;19.38;;;;;;;;;;5050347;28;20546;-46
2021/10/12 08:36:14;;;;;;;34.67;19.73;;;;;;;;;;5049947;28;20044;-49
2021/10/12 08:39:01;;;;;;;36.17;20.60;;;;;;;;;;5043685;28;20044;-50
2021/10/12 08:41:30;;;;;;;33.97;21.10;;;;;;;;;;5050957;28;20049;-48
2021/10/12 08:43:57;;;;;;;34.47;19.52;;;;;;;;;;5009165;22;1202208;-53
2021/10/12 08:46:28;;;;;;;34.38;19.13;;;;;;;;;;5031974;28;20116;-55
2021/10/12 08:48:58;;;;;;;30.90;18.90;;;;;;;;;;5030960;28;20045;-54
2021/10/12 08:51:25;;;;;;;35.83;19.13;;;;;;;;;;5032019;28;20573;-56
2021/10/12 08:53:52;;;;;;;28.23;17.42;;;;;;;;;;5018897;28;20045;-53
2021/10/12 08:56:19;;;;;;;27.13;16.65;;;;;;;;;;5012466;28;20380;-54
2021/10/12 08:58:46;;;;;;;29.65;17.25;;;;;;;;;;5011965;28;20487;-52
2021/10/12 09:01:14;;;;;;;28.35;16.50;;;;;;;;;;5012565;28;20052;-55
2021/10/12 09:06:26;;;;;;;27.75;17.05;;;;;;;;;;5012460;28;20048;-55
2021/10/12 09:09:15;;;;;;;30.98;18.20;;;;;;;;;;5011797;28;20071;-53
2021/10/12 09:11:43;;;;;;;26.15;16.27;;;;;;;;;;5011878;28;20479;-55
2021/10/12 09:14:12;;;;;;;31.25;18.02;;;;;;;;;;5011014;28;20045;-52
2021/10/12 09:16:43;;;;;;;26.98;17.10;;;;;;;;;;5011916;28;20050;-54
2021/10/12 09:19:11;;;;;;;29.48;17.63;;;;;;;;;;5011535;28;20054;-56
2021/10/12 09:21:43;;;;;;;29.23;17.10;;;;;;;;;;5010806;28;20041;-58
2021/10/12 09:24:14;;;;;;;29.17;16.40;;;;;;;;;;5011023;28;20049;-53
2021/10/12 09:26:42;;;;;;;25.63;15.88;;;;;;;;;;5011527;28;20430;-53
2021/10/12 09:29:35;;;;;;;27.40;16.02;;;;;;;;;;5011222;28;20042;-55
2021/10/12 09:32:04;;;;;;;21.17;14.90;;;;;;;;;;5011286;28;20072;-55
2021/10/12 09:34:31;;;;;;;25.02;15.95;;;;;;;;;;5010671;28;20052;-53
2021/10/12 09:36:59;;;;;;;23.67;16.70;;;;;;;;;;5011517;28;20038;-53
2021/10/12 09:39:31;;;;;;;29.13;16.88;;;;;;;;;;5011244;28;20041;-49
2021/10/12 09:41:59;;;;;;;29.98;16.42;;;;;;;;;;5011287;28;20042;-55
2021/10/12 09:44:29;;;;;;;31.88;17.13;;;;;;;;;;5009517;28;20053;-55
2021/10/12 09:47:17;;;;;;;25.70;16.83;;;;;;;;;;5012202;28;20476;-53
2021/10/12 09:49:45;;;;;;;25.42;16.30;;;;;;;;;;4993949;28;20058;-52
2021/10/12 09:52:20;;;;;;;24.20;14.73;;;;;;;;;;5012372;28;20090;-52
2021/10/12 09:54:49;;;;;;;22.48;15.35;;;;;;;;;;5026785;28;20088;-56
2021/10/12 09:57:16;;;;;;;26.35;15.50;;;;;;;;;;5011867;28;20388;-55
2021/10/12 09:59:44;;;;;;;28.15;17.67;;;;;;;;;;5011941;28;20145;-51
2021/10/12 10:02:16;;;;;;;25.27;15.65;;;;;;;;;;5012259;28;20041;-56
2021/10/12 10:04:47;;;;;;;26.00;15.68;;;;;;;;;;5011092;28;20038;-58
2021/10/12 10:07:13;;;;;;;23.95;15.30;;;;;;;;;;5011720;28;20477;-56
2021/10/12 10:09:42;;;;;;;26.10;15.85;;;;;;;;;;5010956;28;20042;-54
2021/10/12 10:12:09;;;;;;;26.25;15.38;;;;;;;;;;5011190;28;20054;-59
2021/10/12 10:14:36;;;;;;;22.88;14.18;;;;;;;;;;5010775;28;20129;-56
2021/10/12 10:17:04;;;;;;;23.65;13.52;;;;;;;;;;5010983;28;20078;-56
2021/10/12 10:19:32;;;;;;;22.30;13.88;;;;;;;;;;5011180;28;20463;-57
2021/10/12 10:22:00;;;;;;;23.20;13.90;;;;;;;;;;5011018;28;20054;-55
2021/10/12 10:24:43;;;;;;;20.05;13.10;;;;;;;;;;5008897;28;20479;-56
2021/10/12 10:27:10;;;;;;;;;;;;;;;;;;5011388;28;20046;-52
2021/10/12 10:29:37;;;;;;;19.10;11.85;;;;;;;;;;5014167;28;19921;-51
2021/10/12 10:32:22;;;;;;;20.40;12.57;;;;;;;;;;5031449;28;20041;-56
2021/10/12 10:35:00;;;;;;;19.83;12.25;;;;;;;;;;5032535;28;20136;-50
2021/10/12 10:37:28;;;;;;;16.73;10.95;;;;;;;;;;5027347;28;20557;-51
2021/10/12 10:40:07;;;;;;;19.33;11.77;;;;;;;;;;5014528;28;20042;-51
2021/10/12 10:42:43;;;;;;;18.63;11.15;;;;;;;;;;5029878;28;20049;-54
2021/10/12 10:45:22;;;;;;;19.70;12.40;;;;;;;;;;5014151;28;20056;-55
2021/10/12 10:48:02;;;;;;;19.90;11.57;;;;;;;;;;5030441;28;20038;-52
2021/10/12 10:50:30;;;;;;;17.60;11.05;;;;;;;;;;5014529;28;20038;-55
2021/10/12 10:52:58;;;;;;;17.33;11.43;;;;;;;;;;5014743;28;20049;-50
2021/10/12 10:55:25;;;;;;;18.58;11.88;;;;;;;;;;5012675;28;20042;-51
2021/10/12 10:58:01;;;;;;;19.58;13.48;;;;;;;;;;5013494;28;20052;-55
2021/10/12 11:00:28;;;;;;;21.75;12.85;;;;;;;;;;5014517;28;20041;-56
2021/10/12 11:02:57;;;;;;;18.08;12.15;;;;;;;;;;5014333;28;20096;-55
2021/10/12 11:05:33;;;;;;;24.00;13.27;;;;;;;;;;5013934;28;20046;-55
2021/10/12 11:08:11;;;;;;;18.58;12.02;;;;;;;;;;5014735;28;20140;-56
2021/10/12 11:10:38;;;;;;;18.58;11.60;;;;;;;;;;5014099;28;20121;-56
2021/10/12 11:13:05;;;;;;;20.88;12.25;;;;;;;;;;5013513;28;20040;-54
2021/10/12 11:15:32;;;;;;;16.83;11.27;;;;;;;;;;5014376;28;20042;-56
2021/10/12 11:18:06;;;;;;;19.35;11.85;;;;;;;;;;5012792;28;20037;-54
2021/10/12 11:20:40;;;;;;;20.20;11.02;;;;;;;;;;5033635;28;20420;-53
2021/10/12 11:23:08;;;;;;;15.57;10.27;;;;;;;;;;5033035;28;20129;-56
2021/10/12 11:25:36;;;;;;;17.98;11.35;;;;;;;;;;5033667;28;20133;-56
2021/10/12 11:28:09;;;;;;;17.25;10.40;;;;;;;;;;5032923;28;20055;-52
2021/10/12 11:30:37;;;;;;;16.13;9.77;;;;;;;;;;5013989;28;20038;-51
2021/10/12 11:33:04;;;;;;;15.05;9.30;;;;;;;;;;5012448;28;20048;-58
2021/10/12 11:35:32;;;;;;;14.98;9.68;;;;;;;;;;5013694;28;20042;-50
2021/10/12 11:37:59;;;;;;;17.33;10.27;;;;;;;;;;5013810;28;20037;-53
2021/10/12 11:40:26;;;;;;;16.48;9.18;;;;;;;;;;5013789;28;20125;-56
2021/10/12 11:42:56;;;;;;;12.88;9.48;;;;;;;;;;5013719;28;20148;-56
2021/10/12 11:45:23;;;;;;;11.57;8.45;;;;;;;;;;5012415;28;20034;-55
2021/10/12 11:47:50;;;;;;;14.77;10.52;;;;;;;;;;5013874;28;20069;-57
2021/10/12 11:50:17;;;;;;;12.13;8.48;;;;;;;;;;5013792;28;20073;-53
2021/10/12 11:52:48;;;;;;;12.82;9.05;;;;;;;;;;5013443;28;20050;-55
2021/10/12 11:55:15;;;;;;;13.13;8.35;;;;;;;;;;5012652;28;20042;-54
2021/10/12 11:57:46;;;;;;;14.95;9.30;;;;;;;;;;5033143;28;20037;-54
2021/10/12 12:00:14;;;;;;;15.15;9.57;;;;;;;;;;5022403;28;20129;-52
2021/10/12 12:02:42;;;;;;;14.10;9.13;;;;;;;;;;5013344;28;20504;-53
2021/10/12 12:05:10;;;;;;;14.15;9.25;;;;;;;;;;5027903;28;20050;-52
2021/10/12 12:07:42;;;;;;;18.55;10.68;;;;;;;;;;5013178;28;20041;-51
2021/10/12 12:10:13;;;;;;;14.40;9.93;;;;;;;;;;5013158;28;20044;-54
2021/10/12 12:12:41;;;;;;;17.23;11.00;;;;;;;;;;5013490;28;20064;-55
2021/10/12 12:15:08;;;;;;;14.88;10.50;;;;;;;;;;5012613;28;20072;-53
2021/10/12 12:17:37;;;;;;;11.07;8.32;;;;;;;;;;5016682;28;20066;-51
2021/10/12 12:20:08;;;;;;;13.73;8.88;;;;;;;;;;5012919;28;20470;-53
2021/10/12 12:22:39;;;;;;;15.05;8.20;;;;;;;;;;5013169;28;20408;-53
2021/10/12 12:25:18;;;;;;;13.30;8.20;;;;;;;;;;5011958;28;20052;-54
2021/10/12 12:27:58;;;;;;;12.77;8.48;;;;;;;;;;5012581;28;20056;-56
2021/10/12 12:30:35;;;;;;;14.38;9.15;;;;;;;;;;5012734;28;20042;-56
2021/10/12 12:33:03;;;;;;;13.32;8.82;;;;;;;;;;5012781;28;20042;-56
2021/10/12 12:35:40;;;;;;;12.75;7.40;;;;;;;;;;5012708;28;20045;-56
2021/10/12 12:38:07;;;;;;;14.38;8.85;;;;;;;;;;5012928;28;20572;-51
2021/10/12 12:40:37;;;;;;;13.77;9.10;;;;;;;;;;5012870;28;20103;-54
2021/10/12 12:43:15;;;;;;;14.68;10.40;;;;;;;;;;5012312;28;20132;-53
2021/10/12 12:45:42;;;;;;;14.90;10.30;;;;;;;;;;5012829;28;20046;-51
2021/10/12 12:48:09;;;;;;;18.60;10.68;;;;;;;;;;5012668;28;20487;-55
2021/10/12 12:50:38;;;;;;;16.02;10.05;;;;;;;;;;5012577;28;20513;-54
2021/10/12 12:53:07;;;;;;;18.58;11.57;;;;;;;;;;5026998;28;20050;-56
2021/10/12 12:55:33;;;;;;;18.73;11.48;;;;;;;;;;5012383;28;20069;-52
2021/10/12 12:58:00;;;;;;;15.45;9.68;;;;;;;;;;5011053;28;20452;-56
2021/10/12 13:00:27;;;;;;;16.00;11.10;;;;;;;;;;5012283;28;20038;-55
2021/10/12 13:02:56;;;;;;;16.13;11.90;;;;;;;;;;5012159;28;20450;-56
2021/10/12 13:05:23;;;;;;;15.15;10.95;;;;;;;;;;5011672;28;20042;-53
2021/10/12 13:07:51;;;;;;;18.05;10.77;;;;;;;;;;5012136;28;20103;-56
2021/10/12 13:10:19;;;;;;;22.17;11.88;;;;;;;;;;5020131;28;20037;-56
2021/10/12 13:12:48;;;;;;;16.33;10.68;;;;;;;;;;4995033;28;20050;-55
2021/10/12 13:15:16;;;;;;;14.68;9.68;;;;;;;;;;5026749;28;20042;-55
2021/10/12 13:17:43;;;;;;;18.10;12.52;;;;;;;;;;5011969;28;20034;-54
2021/10/12 13:20:11;;;;;;;18.83;12.27;;;;;;;;;;5011749;28;20073;-57
2021/10/12 13:22:40;;;;;;;18.38;11.40;;;;;;;;;;5012007;28;20407;-56
2021/10/12 13:25:08;;;;;;;20.80;11.52;;;;;;;;;;5011110;28;20384;-54
2021/10/12 13:27:35;;;;;;;16.85;12.00;;;;;;;;;;5010865;28;20455;-58
2021/10/12 13:30:03;;;;;;;20.88;12.38;;;;;;;;;;5012065;28;20499;-54
2021/10/12 13:32:30;;;;;;;20.52;12.77;;;;;;;;;;5011630;28;20495;-54
2021/10/12 13:34:58;;;;;;;19.08;12.35;;;;;;;;;;5010975;28;20037;-54
2021/10/12 13:37:26;;;;;;;21.77;13.38;;;;;;;;;;5011675;28;20042;-50
2021/10/12 13:39:54;;;;;;;20.13;13.63;;;;;;;;;;5011560;28;20038;-56
2021/10/12 13:42:20;;;;;;;19.67;13.23;;;;;;;;;;5011824;28;20141;-56
2021/10/12 13:44:50;;;;;;;21.92;12.98;;;;;;;;;;5009739;28;20042;-54
2021/10/12 13:47:18;;;;;;;19.92;12.27;;;;;;;;;;5011619;28;20041;-54
2021/10/12 13:49:45;;;;;;;16.08;11.73;;;;;;;;;;5011523;28;20418;-56
2021/10/12 13:52:12;;;;;;;18.92;12.85;;;;;;;;;;5011656;28;20454;-54
2021/10/12 13:54:39;;;;;;;18.27;11.90;;;;;;;;;;5011113;28;20130;-56
2021/10/12 13:57:08;;;;;;;18.95;12.60;;;;;;;;;;5011975;28;20049;-55
2021/10/12 13:59:35;;;;;;;17.70;11.95;;;;;;;;;;5011873;28;20148;-55
2021/10/12 14:02:02;;;;;;;18.20;11.95;;;;;;;;;;5011771;28;20096;-55
2021/10/12 14:04:31;;;;;;;18.40;11.77;;;;;;;;;;5009573;28;20046;-53
2021/10/12 14:06:58;;;;;;;16.42;10.85;;;;;;;;;;5025447;28;20407;-53
2021/10/12 14:09:25;;;;;;;19.65;11.60;;;;;;;;;;5021977;28;20057;-57
2021/10/12 14:11:52;;;;;;;15.98;10.95;;;;;;;;;;5034557;28;20506;-53
2021/10/12 14:14:19;;;;;;;18.67;11.32;;;;;;;;;;5025530;28;20056;-57
2021/10/12 14:16:45;;;;;;;15.57;9.95;;;;;;;;;;5034468;28;20034;-53
2021/10/12 14:19:12;;;;;;;14.93;9.98;;;;;;;;;;5034720;28;20059;-52
2021/10/12 14:21:40;;;;;;;16.30;9.55;;;;;;;;;;5032394;28;20099;-53
2021/10/12 14:24:08;;;;;;;13.50;9.23;;;;;;;;;;5040174;28;20123;-54
2021/10/12 14:26:35;;;;;;;19.33;15.50;;;;;;;;;;5038579;28;20407;-51
2021/10/12 14:29:03;;;;;;;15.20;10.27;;;;;;;;;;5049303;28;20084;-54
2021/10/12 14:31:30;;;;;;;12.85;10.05;;;;;;;;;;5021805;28;20108;-54
2021/10/12 14:33:59;;;;;;;13.98;10.10;;;;;;;;;;5030110;28;20092;-48
2021/10/12 14:36:26;;;;;;;12.07;8.60;;;;;;;;;;5031638;28;20038;-47